Tower, Minnesota
Current Conditions -  °F | °C
As of 4:15 AM on Friday 31 Oct 2014 (Local Time) from KCQM Reporting Station
Overcast Overcast  
Wind Chill: -7°   Ceiling: 3100
Heat Index: -3°   Visibility: 10mi
Dew Point: -8°   Wind: 6mph
Humidity: 69%   Direction: 360°N
Pressure: 30.5"   Gusts: 16mph
Location:  47.81°N, 92.27°W
Report Text: KCQM 310915Z AUTO 36005G14KT 10SM SCT025 OVC031 M03/M08 A3050 RMK AO2
Loading
Personal Weather Stations






























Interactive Weather Map
Tropical Storm Tracking
New forecast layout! Learn more

10-Day Weather Forecast

Advertisements
Track Severe Weather on mobile